KIRS/IRS METAR and TAF weather

Enter ICAO airport designator
Station Type Date Time Source
KIRS METAR 2021/09/28 16:55 UTC NOAA

KIRS 281655Z AUTO 08004KT 10SM CLR 21/09 A3001 RMK AO2 T02050087 P0001


Station Type Date Time Source
KIRS Decoded METAR 2021/09/28 16:55 UTC NOAA

Sturgis, Kirsch Municipal Airport, MI, United States (KIRS) 41-48-46N 085-26-21W
Sep 28, 2021 - 12:55 PM EDT / 2021.09.28 1655 UTC
Wind: from the E (080 degrees) at 5 MPH (4 KT):0
Visibility: 10 mile(s):0
Sky conditions: clear
Precipitation last hour: 0.01 inches
Temperature: 68.9 F (20.5 C)
Dew Point: 47.7 F (8.7 C)
Relative Humidity: 46%
Pressure (altimeter): 30.01 in. Hg (1016 hPa)
ob: KIRS 281655Z AUTO 08004KT 10SM CLR 21/09 A3001 RMK AO2 T02050087 P0001
cycle: 17

Station Type Date Time Source
KIRS TAF UTC NOAA

Error!

Example: see airport list